Time;durP1;ratioP1;P1;durP2;ratioP2;P2;SDS_P1;SDS_P2;PMS_P1;PMS_P2;Temp;Humidity;BMP_temperature;BMP_pressure;BME280_temperature;BME280_humidity;BME280_pressure;Samples;Min_cycle;Max_cycle;Signal;HPM_P1;HPM_P2
2022/05/07 00:00:34;;;;;;;1.50;1.08;;;25.00;45.40;;;;;;5017398;28;20033;-65
2022/05/07 00:03:00;;;;;;;2.05;1.30;;;25.00;45.50;;;;;;5020932;28;20115;-62
2022/05/07 00:05:25;;;;;;;1.88;1.20;;;25.00;45.50;;;;;;5017048;28;20038;-64
2022/05/07 00:07:51;;;;;;;1.63;1.30;;;24.90;45.40;;;;;;5019104;28;20529;-64
2022/05/07 00:10:17;;;;;;;1.80;1.30;;;25.00;45.50;;;;;;5019280;28;20036;-64
2022/05/07 00:12:42;;;;;;;2.17;1.40;;;24.90;45.40;;;;;;5017667;28;20057;-64
2022/05/07 00:15:09;;;;;;;1.88;1.30;;;24.90;45.40;;;;;;5019952;28;20130;-67
2022/05/07 00:20:21;;;;;;;1.80;1.52;;;24.90;45.50;;;;;;5018011;28;20075;-67
2022/05/07 00:22:47;;;;;;;1.80;1.30;;;24.80;45.50;;;;;;5017973;28;20104;-65
2022/05/07 00:25:13;;;;;;;1.67;1.20;;;24.90;45.50;;;;;;5018329;28;20029;-61
2022/05/07 00:27:38;;;;;;;2.63;1.20;;;24.80;45.50;;;;;;5018350;28;20116;-67
2022/05/07 00:30:09;;;;;;;1.80;1.33;;;24.80;45.50;;;;;;5018236;28;20094;-65
2022/05/07 00:32:35;;;;;;;1.88;1.27;;;24.80;45.50;;;;;;5019066;28;20473;-66
2022/05/07 00:35:01;;;;;;;2.20;1.48;;;24.80;45.50;;;;;;5016542;28;20025;-67
2022/05/07 00:37:29;;;;;;;1.58;1.27;;;24.80;45.50;;;;;;5019652;28;20045;-64
2022/05/07 00:39:55;;;;;;;1.33;1.00;;;24.80;45.60;;;;;;5018842;28;20085;-64
2022/05/07 00:42:23;;;;;;;1.08;0.98;;;24.70;45.50;;;;;;5020260;28;20078;-61
2022/05/07 00:44:49;;;;;;;2.00;1.30;;;24.70;45.60;;;;;;5018559;28;20642;-62
2022/05/07 00:47:15;;;;;;;1.45;1.13;;;24.70;45.70;;;;;;5019422;28;20140;-67
2022/05/07 00:49:46;;;;;;;1.67;1.30;;;24.70;45.70;;;;;;5016732;28;20033;-65
2022/05/07 00:52:13;;;;;;;1.60;1.10;;;24.70;45.80;;;;;;5018130;28;20443;-64
2022/05/07 00:54:39;;;;;;;1.40;1.13;;;24.70;45.70;;;;;;5018513;28;20532;-66
2022/05/07 00:57:05;;;;;;;1.60;1.20;;;24.60;45.70;;;;;;5018718;28;20127;-65
2022/05/07 00:59:31;;;;;;;1.90;1.02;;;24.60;45.80;;;;;;5020141;28;20033;-67
2022/05/07 01:01:57;;;;;;;1.40;1.00;;;24.60;45.90;;;;;;5018102;28;20657;-64
2022/05/07 01:04:22;;;;;;;1.70;1.30;;;24.60;45.90;;;;;;5018212;28;20033;-65
2022/05/07 01:06:48;;;;;;;1.33;1.10;;;24.50;45.80;;;;;;5021141;28;20030;-64
2022/05/07 01:09:14;;;;;;;1.58;1.17;;;24.50;45.90;;;;;;5025070;28;20040;-67
2022/05/07 01:11:41;;;;;;;1.67;1.30;;;24.50;45.90;;;;;;5023179;28;21423;-67
2022/05/07 01:14:07;;;;;;;1.30;1.10;;;24.50;45.90;;;;;;5023923;28;20024;-61
2022/05/07 01:16:32;;;;;;;2.25;1.15;;;24.50;45.90;;;;;;5020344;28;20025;-64
2022/05/07 01:18:58;;;;;;;1.30;1.10;;;24.50;46.00;;;;;;5022891;28;20059;-67
2022/05/07 01:21:24;;;;;;;1.45;1.00;;;24.50;46.00;;;;;;5001740;28;20041;-64
2022/05/07 01:23:49;;;;;;;1.52;1.05;;;24.50;45.90;;;;;;5021081;28;20029;-62
2022/05/07 01:26:20;;;;;;;1.85;1.20;;;24.50;46.00;;;;;;5024187;28;20117;-67
2022/05/07 01:28:46;;;;;;;1.88;1.20;;;24.40;45.90;;;;;;5022412;28;20084;-65
2022/05/07 01:31:12;;;;;;;1.70;1.20;;;24.40;46.00;;;;;;5020726;28;20065;-65
2022/05/07 01:33:38;;;;;;;1.70;1.20;;;24.40;46.00;;;;;;5020287;28;20049;-63
2022/05/07 01:36:11;;;;;;;1.52;1.17;;;24.40;46.00;;;;;;5023460;28;20056;-65
2022/05/07 01:38:38;;;;;;;1.38;1.10;;;24.40;46.00;;;;;;5021651;28;20129;-65
2022/05/07 01:41:04;;;;;;;1.27;1.00;;;24.40;46.00;;;;;;5020407;28;20547;-64
2022/05/07 01:43:32;;;;;;;1.35;1.17;;;24.40;46.00;;;;;;5022085;28;20048;-68
2022/05/07 01:46:01;;;;;;;1.20;1.00;;;24.40;46.10;;;;;;5022266;28;20106;-67
2022/05/07 01:48:28;;;;;;;1.48;1.10;;;24.30;46.00;;;;;;5019025;28;20722;-65
2022/05/07 01:50:54;;;;;;;1.13;1.00;;;24.30;46.00;;;;;;5022610;28;20048;-64
2022/05/07 01:53:20;;;;;;;1.30;1.02;;;24.30;46.00;;;;;;5023256;28;20683;-65
2022/05/07 01:55:46;;;;;;;1.85;1.23;;;24.30;46.00;;;;;;5021461;28;20114;-66
2022/05/07 01:58:11;;;;;;;1.60;1.20;;;24.30;46.10;;;;;;5020142;28;20037;-65
2022/05/07 02:00:40;;;;;;;1.45;1.20;;;24.30;46.00;;;;;;5019559;28;20037;-62
2022/05/07 02:03:06;;;;;;;1.42;1.20;;;24.30;46.10;;;;;;5019344;28;20506;-64
2022/05/07 02:05:32;;;;;;;1.20;1.00;;;24.30;46.10;;;;;;5018733;28;20060;-67
2022/05/07 02:07:58;;;;;;;1.45;1.00;;;24.30;46.10;;;;;;5019841;28;20072;-65
2022/05/07 02:10:25;;;;;;;1.40;1.10;;;24.30;46.10;;;;;;5022934;28;20675;-62
2022/05/07 02:12:51;;;;;;;1.10;1.00;;;24.20;46.10;;;;;;5025247;28;20036;-64
2022/05/07 02:15:17;;;;;;;1.45;1.08;;;24.20;46.10;;;;;;5023452;28;20111;-65
2022/05/07 02:17:43;;;;;;;1.73;1.20;;;24.20;46.10;;;;;;5018817;28;20037;-63
2022/05/07 02:20:09;;;;;;;1.35;1.00;;;24.20;46.10;;;;;;5021765;28;20035;-64
2022/05/07 02:22:35;;;;;;;1.30;1.10;;;24.20;46.10;;;;;;5018350;28;20021;-65
2022/05/07 02:25:00;;;;;;;1.70;1.20;;;24.20;46.10;;;;;;5020301;28;20028;-61
2022/05/07 02:27:26;;;;;;;1.10;0.98;;;24.20;46.10;;;;;;5003970;28;20045;-67
2022/05/07 02:29:52;;;;;;;1.60;1.20;;;24.20;46.10;;;;;;5020120;28;20037;-62
2022/05/07 02:32:18;;;;;;;1.23;1.00;;;24.20;46.10;;;;;;5018946;28;20040;-62
2022/05/07 02:34:44;;;;;;;1.35;1.10;;;24.20;46.10;;;;;;5017335;28;20357;-63
2022/05/07 02:37:10;;;;;;;1.90;1.30;;;24.10;46.10;;;;;;5002509;28;20029;-67
2022/05/07 02:39:36;;;;;;;1.10;1.00;;;24.10;46.10;;;;;;5023577;28;20079;-62
2022/05/07 02:44:47;;;;;;;1.40;1.10;;;24.10;46.10;;;;;;5022009;28;20067;-62
2022/05/07 02:47:12;;;;;;;1.27;1.00;;;24.10;46.20;;;;;;5020387;28;20029;-64
2022/05/07 02:49:38;;;;;;;1.65;1.10;;;24.10;46.10;;;;;;5018106;28;20366;-65
2022/05/07 02:52:04;;;;;;;0.93;0.90;;;24.10;46.20;;;;;;5019244;28;20044;-67
2022/05/07 02:54:30;;;;;;;1.40;1.10;;;24.10;46.20;;;;;;5003882;28;20523;-66
2022/05/07 02:56:56;;;;;;;1.33;1.10;;;24.10;46.70;;;;;;5018967;28;20044;-67
2022/05/07 02:59:23;;;;;;;1.63;1.08;;;24.10;46.20;;;;;;5021423;28;20040;-64
2022/05/07 03:01:49;;;;;;;1.30;1.10;;;24.10;46.20;;;;;;5019030;28;20430;-65
2022/05/07 03:04:14;;;;;;;1.40;1.20;;;24.00;46.10;;;;;;5017446;28;20120;-66
2022/05/07 03:06:40;;;;;;;1.65;1.20;;;24.10;46.20;;;;;;5018091;28;20037;-64
2022/05/07 03:09:06;;;;;;;1.30;1.10;;;24.00;46.10;;;;;;5018908;28;20044;-67
2022/05/07 03:11:33;;;;;;;1.58;1.25;;;24.00;46.10;;;;;;5020273;28;20048;-65
2022/05/07 03:14:00;;;;;;;1.17;1.00;;;24.00;46.20;;;;;;5020968;28;20523;-65
2022/05/07 03:16:26;;;;;;;1.38;1.10;;;24.00;46.20;;;;;;5020466;28;20033;-64
2022/05/07 03:18:52;;;;;;;1.55;1.10;;;24.00;46.20;;;;;;5019211;28;20039;-64
2022/05/07 03:21:18;;;;;;;1.08;0.98;;;24.00;46.20;;;;;;5017653;28;20048;-64
2022/05/07 03:23:44;;;;;;;1.15;1.00;;;24.00;46.20;;;;;;5003290;28;20124;-64
2022/05/07 03:26:11;;;;;;;2.30;1.30;;;24.00;46.20;;;;;;5022037;28;20020;-65
2022/05/07 03:28:37;;;;;;;1.20;1.00;;;24.00;46.20;;;;;;5018953;28;20492;-66
2022/05/07 03:31:03;;;;;;;1.20;1.00;;;24.00;46.20;;;;;;5018002;28;20033;-67
2022/05/07 03:33:29;;;;;;;1.35;1.00;;;23.90;46.20;;;;;;5011502;28;20922;-63
2022/05/07 03:35:55;;;;;;;1.42;1.10;;;23.90;46.20;;;;;;5017773;28;20453;-67
2022/05/07 03:38:20;;;;;;;1.40;1.10;;;23.90;46.20;;;;;;5021480;28;20029;-67
2022/05/07 03:40:46;;;;;;;1.25;1.10;;;23.90;46.20;;;;;;5019742;28;20033;-64
2022/05/07 03:43:11;;;;;;;1.45;1.05;;;23.90;46.20;;;;;;5021483;28;20071;-65
2022/05/07 03:45:37;;;;;;;1.42;1.10;;;23.90;46.20;;;;;;5017411;28;20036;-61
2022/05/07 03:48:03;;;;;;;1.30;1.00;;;23.90;46.20;;;;;;5018967;28;20670;-65
2022/05/07 03:50:28;;;;;;;1.48;1.10;;;23.90;46.20;;;;;;5018415;28;20024;-67
2022/05/07 03:55:41;;;;;;;1.35;1.10;;;23.90;46.30;;;;;;5016679;28;20126;-64
2022/05/07 03:58:10;;;;;;;1.40;1.10;;;23.90;46.30;;;;;;5011886;28;20037;-67
2022/05/07 04:00:37;;;;;;;1.92;1.10;;;23.90;46.30;;;;;;5017846;28;20051;-64
2022/05/07 04:03:04;;;;;;;1.45;1.10;;;23.90;46.20;;;;;;5017822;28;20045;-65
2022/05/07 04:05:29;;;;;;;1.45;1.15;;;23.90;46.30;;;;;;5018072;28;20038;-67
2022/05/07 04:07:55;;;;;;;1.50;1.20;;;23.90;46.30;;;;;;5017083;28;20064;-67
2022/05/07 04:10:20;;;;;;;1.27;1.00;;;23.80;46.20;;;;;;5017564;28;20018;-63
2022/05/07 04:12:51;;;;;;;1.50;1.00;;;23.80;46.30;;;;;;5018751;28;20401;-62
2022/05/07 04:15:17;;;;;;;1.10;1.00;;;23.80;46.30;;;;;;5018625;28;20483;-65
2022/05/07 04:17:43;;;;;;;1.30;1.10;;;23.80;46.30;;;;;;5013884;28;20033;-67
2022/05/07 04:20:09;;;;;;;1.48;1.10;;;23.80;46.30;;;;;;5014737;28;20040;-65
2022/05/07 04:22:35;;;;;;;1.00;0.90;;;23.80;46.30;;;;;;5019167;28;20047;-64
2022/05/07 04:25:02;;;;;;;1.30;1.00;;;23.80;46.30;;;;;;5019906;28;20038;-64
2022/05/07 04:27:28;;;;;;;1.15;0.93;;;23.80;46.30;;;;;;5020205;28;20090;-65
2022/05/07 04:29:53;;;;;;;1.17;1.05;;;23.80;46.30;;;;;;5018511;28;20120;-66
2022/05/07 04:32:19;;;;;;;1.33;0.93;;;23.80;46.30;;;;;;5021571;28;20039;-66
2022/05/07 04:34:45;;;;;;;1.10;0.93;;;23.80;46.30;;;;;;5018978;28;20033;-64
2022/05/07 04:37:10;;;;;;;1.08;0.98;;;23.70;46.30;;;;;;5020375;28;20036;-66
2022/05/07 04:39:36;;;;;;;1.10;0.90;;;23.70;46.30;;;;;;5020160;28;20033;-64
2022/05/07 04:42:02;;;;;;;1.38;1.00;;;23.70;46.30;;;;;;5022741;28;20129;-64
2022/05/07 04:44:28;;;;;;;1.13;1.00;;;23.70;46.30;;;;;;5023103;28;20033;-66
2022/05/07 04:46:54;;;;;;;1.30;1.10;;;23.70;46.40;;;;;;5020146;28;20032;-64
2022/05/07 04:49:21;;;;;;;1.48;1.10;;;23.70;46.40;;;;;;5020071;28;20032;-65
2022/05/07 04:51:50;;;;;;;1.20;1.00;;;23.70;46.40;;;;;;5022532;28;20370;-64
2022/05/07 04:54:20;;;;;;;;;;;23.70;46.40;;;;;;5023682;28;20033;-65
2022/05/07 04:56:46;;;;;;;1.10;0.90;;;23.70;46.40;;;;;;5019649;28;19997;-64
2022/05/07 04:59:15;;;;;;;1.02;0.90;;;23.70;46.40;;;;;;5023200;28;20133;-66
2022/05/07 05:01:41;;;;;;;;;;;23.70;46.40;;;;;;5021916;28;20405;-66
2022/05/07 05:04:07;;;;;;;1.83;1.00;;;23.70;46.40;;;;;;5021221;28;19970;-64
2022/05/07 05:06:33;;;;;;;2.05;1.10;;;23.70;46.40;;;;;;5023145;28;20094;-67
2022/05/07 05:08:58;;;;;;;1.17;1.00;;;23.70;46.40;;;;;;5020339;28;20103;-66
2022/05/07 05:11:25;;;;;;;1.33;0.95;;;23.60;46.40;;;;;;5024077;28;20123;-62
2022/05/07 05:13:50;;;;;;;1.60;1.20;;;23.60;46.40;;;;;;5023696;28;20045;-66
2022/05/07 05:16:16;;;;;;;1.60;1.10;;;23.60;46.40;;;;;;5022010;28;20400;-66
2022/05/07 05:18:42;;;;;;;0.90;0.90;;;23.60;46.40;;;;;;5022443;28;20036;-64
2022/05/07 05:21:07;;;;;;;1.00;0.90;;;23.60;46.40;;;;;;5022217;28;20133;-62
2022/05/07 05:23:33;;;;;;;1.05;0.90;;;23.60;46.50;;;;;;5022569;28;20044;-63
2022/05/07 05:25:58;;;;;;;1.00;0.88;;;23.60;46.50;;;;;;5022114;28;20029;-61
2022/05/07 05:28:24;;;;;;;1.40;1.10;;;23.60;46.40;;;;;;5022118;28;20038;-66
2022/05/07 05:30:51;;;;;;;1.10;0.95;;;23.60;46.40;;;;;;5021375;28;20037;-64
2022/05/07 05:33:21;;;;;;;1.85;1.10;;;23.60;46.50;;;;;;5020241;28;20061;-67
2022/05/07 05:35:47;;;;;;;1.10;0.90;;;23.60;46.50;;;;;;5015416;28;20124;-64
2022/05/07 05:38:12;;;;;;;1.10;0.98;;;23.60;46.50;;;;;;5026882;28;20029;-65
2022/05/07 05:40:38;;;;;;;1.40;1.08;;;23.60;46.50;;;;;;5021581;28;20044;-66
2022/05/07 05:43:05;;;;;;;1.55;1.10;;;23.50;46.50;;;;;;5020701;28;20033;-66
2022/05/07 05:45:30;;;;;;;1.13;1.00;;;23.60;46.60;;;;;;5022537;28;20030;-62
2022/05/07 05:47:56;;;;;;;1.65;1.00;;;23.50;46.50;;;;;;5012439;28;20056;-64
2022/05/07 05:50:22;;;;;;;1.38;0.93;;;23.60;46.50;;;;;;5021743;28;20073;-66
2022/05/07 05:52:47;;;;;;;1.02;0.90;;;23.50;46.50;;;;;;5020603;28;20485;-64
2022/05/07 05:55:13;;;;;;;1.25;1.10;;;23.60;46.50;;;;;;5015675;28;20059;-64
2022/05/07 05:57:38;;;;;;;1.92;0.93;;;23.60;46.50;;;;;;5023543;28;20108;-64
2022/05/07 06:00:07;;;;;;;1.15;1.00;;;23.50;46.50;;;;;;5002854;28;20021;-64
2022/05/07 06:02:36;;;;;;;1.20;1.00;;;23.60;46.50;;;;;;5021900;28;20474;-64
2022/05/07 06:05:01;;;;;;;1.58;1.17;;;23.50;46.50;;;;;;5018742;28;20026;-64
2022/05/07 06:07:27;;;;;;;1.20;1.00;;;23.50;46.50;;;;;;5008162;28;20044;-64
2022/05/07 06:09:53;;;;;;;1.65;1.10;;;23.50;46.50;;;;;;5023118;28;20063;-65
2022/05/07 06:12:18;;;;;;;1.55;1.08;;;23.50;46.50;;;;;;5019989;28;20834;-66
2022/05/07 06:14:44;;;;;;;1.05;0.82;;;23.50;46.50;;;;;;5008318;28;20121;-64
2022/05/07 06:17:09;;;;;;;1.17;0.90;;;23.50;46.50;;;;;;5022178;28;20032;-66
2022/05/07 06:19:35;;;;;;;1.30;1.00;;;23.50;46.50;;;;;;5020718;28;20480;-66
2022/05/07 06:22:01;;;;;;;2.65;1.23;;;23.50;46.50;;;;;;5020185;28;20121;-65
2022/05/07 06:30:09;;;;;;;1.40;0.95;;;23.50;46.50;;;;;;5001253;28;20045;-61
2022/05/07 06:32:36;;;;;;;1.38;0.90;;;23.50;46.50;;;;;;5022321;28;20139;-65
2022/05/07 06:35:05;;;;;;;1.40;1.00;;;23.50;46.50;;;;;;5020804;28;20133;-64
2022/05/07 06:37:31;;;;;;;;;;;23.40;46.40;;;;;;5021624;28;20114;-66
2022/05/07 06:39:57;;;;;;;1.42;1.00;;;23.40;46.50;;;;;;5021498;28;19924;-65
2022/05/07 06:42:23;;;;;;;1.00;0.90;;;23.40;46.50;;;;;;5021958;28;20029;-65
2022/05/07 06:44:48;;;;;;;1.13;1.00;;;23.40;46.50;;;;;;5023334;28;20346;-64
2022/05/07 06:47:15;;;;;;;1.15;1.00;;;23.40;46.50;;;;;;5021376;28;20036;-65
2022/05/07 06:49:43;;;;;;;1.45;1.02;;;23.40;46.50;;;;;;5020921;28;20036;-62
2022/05/07 06:52:09;;;;;;;1.20;1.00;;;23.40;46.40;;;;;;5020324;28;20127;-66
2022/05/07 06:54:35;;;;;;;1.20;1.10;;;23.40;46.50;;;;;;5017793;28;20421;-66
2022/05/07 06:57:01;;;;;;;1.27;1.00;;;23.40;46.50;;;;;;5020044;28;20028;-64
2022/05/07 06:59:26;;;;;;;0.85;0.85;;;23.40;46.40;;;;;;5018110;28;20025;-65
2022/05/07 07:01:54;;;;;;;1.00;0.90;;;23.40;46.40;;;;;;5021160;28;20052;-66
2022/05/07 07:04:20;;;;;;;1.50;1.10;;;23.40;46.50;;;;;;5018020;28;20037;-65
2022/05/07 07:06:46;;;;;;;1.83;1.00;;;23.40;46.50;;;;;;5020442;28;20029;-65
2022/05/07 07:09:11;;;;;;;1.00;0.90;;;23.40;46.50;;;;;;5019634;28;20038;-66
2022/05/07 07:11:37;;;;;;;1.52;1.00;;;23.40;46.50;;;;;;5020824;28;20052;-63
2022/05/07 07:14:03;;;;;;;1.63;1.10;;;23.40;46.50;;;;;;5019963;28;20562;-66
2022/05/07 07:16:29;;;;;;;1.92;1.00;;;23.40;46.50;;;;;;5017914;28;20448;-66
2022/05/07 07:18:55;;;;;;;1.10;0.90;;;23.40;46.50;;;;;;5018853;28;20070;-63
2022/05/07 07:21:21;;;;;;;1.40;1.05;;;23.40;46.50;;;;;;5020802;28;20354;-64
2022/05/07 07:23:47;;;;;;;1.23;1.00;;;23.40;46.50;;;;;;5020386;28;20030;-63
2022/05/07 07:26:13;;;;;;;1.55;1.00;;;23.40;46.50;;;;;;5019956;28;20017;-63
2022/05/07 07:28:39;;;;;;;1.67;0.90;;;23.30;46.50;;;;;;5020142;28;20535;-65
2022/05/07 07:31:05;;;;;;;1.30;1.10;;;23.40;46.60;;;;;;5020432;28;20052;-63
2022/05/07 07:33:31;;;;;;;1.17;1.00;;;23.30;46.50;;;;;;5000106;28;20037;-64
2022/05/07 07:35:56;;;;;;;1.20;1.10;;;23.40;46.60;;;;;;5019761;28;20517;-64
2022/05/07 07:38:22;;;;;;;1.17;0.95;;;23.30;46.50;;;;;;5012150;28;20036;-65
2022/05/07 07:40:50;;;;;;;1.33;1.10;;;23.40;46.60;;;;;;5021452;28;20051;-66
2022/05/07 07:43:20;;;;;;;1.33;1.00;;;23.30;46.60;;;;;;5022621;28;20859;-64
2022/05/07 07:48:31;;;;;;;1.20;1.00;;;23.30;46.60;;;;;;5018647;28;20179;-63
2022/05/07 07:50:57;;;;;;;1.50;1.10;;;23.30;46.60;;;;;;5018436;28;20079;-61
2022/05/07 07:53:24;;;;;;;1.20;1.00;;;23.30;46.50;;;;;;5019266;28;20033;-62
2022/05/07 07:55:50;;;;;;;1.25;1.00;;;23.30;46.60;;;;;;5020869;28;20025;-66
2022/05/07 07:58:17;;;;;;;1.13;1.00;;;23.30;46.60;;;;;;5019825;28;20038;-63
2022/05/07 08:00:44;;;;;;;1.30;1.10;;;23.30;46.60;;;;;;5019861;28;20030;-62
2022/05/07 08:03:20;;;;;;;1.20;1.00;;;23.30;46.60;;;;;;5017880;28;20036;-64
2022/05/07 08:05:48;;;;;;;1.42;1.00;;;23.30;46.60;;;;;;5019168;28;20075;-61
2022/05/07 08:13:46;;;;;;;1.35;1.00;;;23.30;46.60;;;;;;5019800;28;20049;-63
2022/05/07 08:16:14;;;;;;;1.35;1.00;;;23.30;46.60;;;;;;5023603;28;20028;-66
2022/05/07 08:18:44;;;;;;;1.38;1.00;;;23.30;46.60;;;;;;5023917;28;20029;-63
2022/05/07 08:21:11;;;;;;;1.40;1.10;;;23.30;46.60;;;;;;5021566;28;20040;-64
2022/05/07 08:23:40;;;;;;;1.75;1.13;;;23.30;46.60;;;;;;5005760;28;20047;-63
2022/05/07 08:26:06;;;;;;;;;;;23.30;46.60;;;;;;5023054;28;20029;-63
2022/05/07 08:28:33;;;;;;;1.58;1.10;;;23.30;46.60;;;;;;5021379;28;20713;-62
2022/05/07 08:31:00;;;;;;;1.10;1.00;;;23.30;47.10;;;;;;5023688;28;20041;-64
2022/05/07 08:33:27;;;;;;;1.70;1.20;;;23.40;46.60;;;;;;5021894;28;20469;-63
2022/05/07 08:35:53;;;;;;;2.63;1.10;;;23.30;46.60;;;;;;5024289;28;21057;-61
2022/05/07 08:38:19;;;;;;;1.40;1.10;;;23.30;46.60;;;;;;5021521;28;20029;-63
2022/05/07 08:40:45;;;;;;;1.48;1.10;;;23.40;46.70;;;;;;5024894;28;21015;-62
2022/05/07 08:43:11;;;;;;;1.73;0.90;;;23.30;46.60;;;;;;5023672;28;20032;-67
2022/05/07 08:45:39;;;;;;;1.65;1.30;;;23.30;46.60;;;;;;5021914;28;20100;-64
2022/05/07 08:48:05;;;;;;;1.50;1.00;;;23.30;46.60;;;;;;5019529;28;21106;-64
2022/05/07 08:50:31;;;;;;;1.55;1.05;;;23.40;46.60;;;;;;5021952;28;20032;-61
2022/05/07 08:52:57;;;;;;;1.70;1.10;;;23.40;46.60;;;;;;5023263;28;20040;-63
2022/05/07 08:55:23;;;;;;;1.42;1.00;;;23.40;46.60;;;;;;5023659;28;20026;-60
2022/05/07 08:57:52;;;;;;;1.77;1.23;;;23.40;46.60;;;;;;5022415;28;20040;-63
2022/05/07 09:00:20;;;;;;;2.13;1.00;;;23.40;46.60;;;;;;5019575;28;20029;-63
2022/05/07 09:02:50;;;;;;;1.40;1.00;;;23.40;46.60;;;;;;5019419;28;20041;-63
2022/05/07 09:05:18;;;;;;;1.70;1.13;;;23.40;46.60;;;;;;5019798;28;20030;-65
2022/05/07 09:07:58;;;;;;;2.13;1.45;;;23.40;46.60;;;;;;5021004;28;20311;-65
2022/05/07 09:10:29;;;;;;;2.80;1.63;;;23.40;46.40;;;;;;5022208;28;20035;-60
2022/05/07 09:13:09;;;;;;;2.88;1.75;;;23.40;46.10;;;;;;5018440;28;20034;-64
2022/05/07 09:15:36;;;;;;;3.25;1.95;;;23.30;45.50;;;;;;5021898;28;20037;-63
2022/05/07 09:18:12;;;;;;;2.88;1.80;;;23.30;45.30;;;;;;5017722;28;20039;-64
2022/05/07 09:20:38;;;;;;;2.55;2.08;;;23.30;45.10;;;;;;5019343;28;20083;-64
2022/05/07 09:23:04;;;;;;;3.80;2.15;;;23.30;44.80;;;;;;5020492;28;20049;-63
2022/05/07 09:25:30;;;;;;;3.78;2.10;;;23.30;44.60;;;;;;5022024;28;20037;-64
2022/05/07 09:27:59;;;;;;;2.80;1.95;;;23.30;44.60;;;;;;5021781;28;20393;-63
2022/05/07 09:30:30;;;;;;;3.47;2.33;;;23.30;44.50;;;;;;5019464;28;21061;-63
2022/05/07 09:32:56;;;;;;;3.17;2.22;;;23.20;44.30;;;;;;5020555;28;20044;-65
2022/05/07 09:38:11;;;;;;;4.07;2.05;;;23.20;43.80;;;;;;5018092;28;20297;-65
2022/05/07 09:40:39;;;;;;;3.55;2.30;;;23.20;43.70;;;;;;5019125;28;20033;-63
2022/05/07 09:43:05;;;;;;;3.42;2.30;;;23.20;43.70;;;;;;5020549;28;20029;-65
2022/05/07 09:45:31;;;;;;;4.85;2.50;;;23.20;43.70;;;;;;5021746;28;20026;-61
2022/05/07 09:48:00;;;;;;;3.45;2.20;;;23.20;43.60;;;;;;5018712;28;20029;-65
2022/05/07 09:58:38;;;;;;;4.78;2.20;;;23.20;43.60;;;;;;5020534;28;20940;-65
2022/05/07 10:01:35;;;;;;;3.45;2.15;;;23.20;43.60;;;;;;5003166;28;20041;-63
2022/05/07 10:04:20;;;;;;;2.60;2.00;;;23.20;43.70;;;;;;5016691;28;20033;-61
2022/05/07 10:07:09;;;;;;;3.22;2.00;;;23.20;43.80;;;;;;5020573;28;20607;-63
2022/05/07 10:09:43;;;;;;;;;;;23.20;43.80;;;;;;5018417;28;20102;-63
2022/05/07 10:12:16;;;;;;;3.60;2.08;;;23.20;43.90;;;;;;5018191;28;19909;-65
2022/05/07 10:14:42;;;;;;;2.65;1.92;;;23.20;44.00;;;;;;5016471;28;20039;-67
2022/05/07 10:17:12;;;;;;;3.03;2.22;;;23.20;44.10;;;;;;5021344;28;20710;-64
2022/05/07 10:19:42;;;;;;;2.42;1.70;;;23.20;44.10;;;;;;5014896;28;20765;-64
2022/05/07 10:22:21;;;;;;;3.13;2.10;;;23.20;44.10;;;;;;5023165;28;20026;-63
2022/05/07 10:24:48;;;;;;;;;;;23.20;44.20;;;;;;5017955;28;20098;-64
2022/05/07 10:27:30;;;;;;;3.08;2.00;;;23.20;44.20;;;;;;5018375;28;20007;-64
2022/05/07 10:30:15;;;;;;;3.22;1.95;;;23.20;44.30;;;;;;5016908;28;20060;-66
2022/05/07 10:33:03;;;;;;;2.78;1.58;;;23.20;44.40;;;;;;5016788;28;20112;-62
2022/05/07 10:35:45;;;;;;;1.80;1.48;;;23.20;44.50;;;;;;5015322;28;20037;-65
2022/05/07 10:38:22;;;;;;;2.85;1.77;;;23.20;44.60;;;;;;5017736;28;20029;-65
2022/05/07 10:40:59;;;;;;;2.58;1.70;;;23.20;44.70;;;;;;5021199;28;20398;-65
2022/05/07 10:43:36;;;;;;;2.25;1.60;;;23.20;44.80;;;;;;5018422;28;20029;-66
2022/05/07 10:46:05;;;;;;;2.47;1.67;;;23.20;44.90;;;;;;5016688;28;20036;-65
2022/05/07 10:48:45;;;;;;;2.35;1.60;;;23.20;45.00;;;;;;5013782;28;20028;-65
2022/05/07 10:51:28;;;;;;;2.45;1.65;;;23.20;45.10;;;;;;5008897;28;20065;-65
2022/05/07 10:53:59;;;;;;;2.40;1.70;;;23.20;45.20;;;;;;5016516;28;20452;-65
2022/05/07 10:56:25;;;;;;;3.17;1.70;;;23.20;45.20;;;;;;5021815;28;20029;-62
2022/05/07 10:58:53;;;;;;;1.75;1.50;;;23.20;45.30;;;;;;5016954;28;20036;-66
2022/05/07 11:01:21;;;;;;;2.28;1.50;;;23.20;45.30;;;;;;5022894;28;20817;-65
2022/05/07 11:03:47;;;;;;;2.25;1.60;;;23.20;45.40;;;;;;5015696;28;20064;-64
2022/05/07 11:06:13;;;;;;;2.08;1.50;;;23.30;45.40;;;;;;5018193;28;20320;-62
2022/05/07 11:08:55;;;;;;;2.00;1.45;;;23.30;45.50;;;;;;5019382;28;20029;-65
2022/05/07 11:11:22;;;;;;;2.20;1.42;;;23.30;45.50;;;;;;5017320;28;20049;-65
2022/05/07 11:13:57;;;;;;;2.70;1.55;;;23.30;45.50;;;;;;5006262;28;20029;-65
2022/05/07 11:16:24;;;;;;;1.88;1.42;;;23.30;45.60;;;;;;5016675;28;20026;-64
2022/05/07 11:18:51;;;;;;;3.35;1.60;;;23.30;45.60;;;;;;5012543;28;20139;-65
2022/05/07 11:21:22;;;;;;;1.90;1.25;;;23.20;45.50;;;;;;5016367;28;20029;-63
2022/05/07 11:23:59;;;;;;;2.13;1.60;;;23.20;45.60;;;;;;5018138;28;20208;-62
2022/05/07 11:26:26;;;;;;;2.63;1.55;;;23.30;45.70;;;;;;5013154;28;20037;-65
2022/05/07 11:28:52;;;;;;;3.10;1.58;;;23.20;45.50;;;;;;5018628;28;20045;-61
2022/05/07 11:31:31;;;;;;;2.40;1.52;;;23.30;45.50;;;;;;5017409;28;20033;-65
2022/05/07 11:34:02;;;;;;;2.25;1.50;;;23.30;45.60;;;;;;5017153;28;20021;-65
2022/05/07 11:36:28;;;;;;;3.05;1.50;;;23.30;45.50;;;;;;5015925;28;20480;-65
2022/05/07 11:39:03;;;;;;;2.20;1.40;;;23.30;45.50;;;;;;5017724;28;20504;-65
2022/05/07 11:41:29;;;;;;;3.33;1.60;;;23.30;45.50;;;;;;5017891;28;20040;-61
2022/05/07 11:46:53;;;;;;;2.67;1.65;;;23.30;45.50;;;;;;5015829;28;20083;-62
2022/05/07 11:49:34;;;;;;;1.90;1.40;;;23.30;45.60;;;;;;5016340;28;20508;-65
2022/05/07 11:52:11;;;;;;;2.63;1.73;;;23.30;45.60;;;;;;5015532;28;20033;-66
2022/05/07 11:54:49;;;;;;;2.63;1.60;;;23.30;45.70;;;;;;5016972;28;20068;-63
2022/05/07 11:57:29;;;;;;;3.83;1.70;;;23.30;45.70;;;;;;5001384;28;20064;-64
2022/05/07 11:59:55;;;;;;;2.63;1.70;;;23.30;45.70;;;;;;5017442;28;20487;-61
2022/05/07 12:02:20;;;;;;;3.17;1.65;;;23.30;45.80;;;;;;5019039;28;20647;-66
2022/05/07 12:04:56;;;;;;;2.25;1.60;;;23.30;45.80;;;;;;5016938;28;20040;-65
2022/05/07 12:07:21;;;;;;;2.60;1.70;;;23.30;46.00;;;;;;5017049;28;20053;-63
2022/05/07 12:09:48;;;;;;;3.88;1.75;;;23.40;46.00;;;;;;5018501;28;20144;-63
2022/05/07 12:12:14;;;;;;;4.05;1.50;;;23.30;46.00;;;;;;5018518;28;20183;-66
2022/05/07 12:14:40;;;;;;;2.15;1.73;;;23.40;46.00;;;;;;5019220;28;20113;-62
2022/05/07 12:19:50;;;;;;;2.83;1.70;;;23.40;46.10;;;;;;5017410;28;20044;-65
2022/05/07 12:30:29;;;;;;;2.55;1.60;;;23.40;46.20;;;;;;5018708;28;20454;-66
2022/05/07 12:32:55;;;;;;;2.45;1.70;;;23.40;46.20;;;;;;5017003;28;20029;-66
2022/05/07 12:35:21;;;;;;;2.40;1.80;;;23.40;46.20;;;;;;5016467;28;20033;-63
2022/05/07 12:37:46;;;;;;;2.83;1.48;;;23.40;46.10;;;;;;5016032;28;20036;-66
2022/05/07 12:40:13;;;;;;;2.63;1.42;;;23.40;46.10;;;;;;5002554;28;20106;-65
2022/05/07 12:42:39;;;;;;;2.28;1.60;;;23.40;46.20;;;;;;5020132;28;20059;-65
2022/05/07 12:45:06;;;;;;;2.30;1.40;;;23.40;46.00;;;;;;5017931;28;20043;-65
2022/05/07 12:47:32;;;;;;;3.78;1.58;;;23.40;46.10;;;;;;5015670;28;20061;-65
2022/05/07 12:49:57;;;;;;;2.67;1.60;;;23.40;46.20;;;;;;5016994;28;20059;-65
2022/05/07 12:52:23;;;;;;;2.10;1.60;;;23.40;46.20;;;;;;5019230;28;20021;-66
2022/05/07 12:54:49;;;;;;;2.15;1.55;;;23.40;46.30;;;;;;5019271;28;20469;-65
2022/05/07 12:57:15;;;;;;;2.88;1.45;;;23.40;46.30;;;;;;5021355;28;20041;-66
2022/05/07 12:59:41;;;;;;;2.20;1.63;;;23.40;46.40;;;;;;5018764;28;20029;-64
2022/05/07 13:02:08;;;;;;;2.35;1.48;;;23.40;46.50;;;;;;5018898;28;20098;-65
2022/05/07 13:04:35;;;;;;;2.70;1.67;;;23.40;46.40;;;;;;5019392;28;20064;-67
2022/05/07 13:07:01;;;;;;;2.30;1.50;;;23.40;46.40;;;;;;5021307;28;20572;-65
2022/05/07 13:09:29;;;;;;;3.25;1.80;;;23.40;46.40;;;;;;5020744;28;20033;-68
2022/05/07 13:11:57;;;;;;;2.60;1.50;;;23.40;46.40;;;;;;5025233;28;20673;-67
2022/05/07 13:14:23;;;;;;;2.22;1.40;;;23.40;46.40;;;;;;5023855;28;20072;-63
2022/05/07 13:16:49;;;;;;;2.67;1.50;;;23.40;46.40;;;;;;5023821;28;20041;-63
2022/05/07 13:19:15;;;;;;;1.92;1.63;;;23.40;46.40;;;;;;5019411;28;20036;-67
2022/05/07 13:21:44;;;;;;;2.30;1.67;;;23.40;46.30;;;;;;5024219;28;20052;-66
2022/05/07 13:24:11;;;;;;;2.67;1.70;;;23.40;46.40;;;;;;5023535;28;20025;-63
2022/05/07 13:26:38;;;;;;;1.92;1.40;;;23.40;46.40;;;;;;5023179;28;20568;-63
2022/05/07 13:29:06;;;;;;;3.70;1.88;;;23.40;46.30;;;;;;5022153;28;21401;-65
2022/05/07 13:31:37;;;;;;;2.53;1.50;;;23.50;46.50;;;;;;5021390;28;20123;-65
2022/05/07 13:34:04;;;;;;;2.53;1.50;;;23.40;46.40;;;;;;5021283;28;20040;-66
2022/05/07 13:36:33;;;;;;;2.00;1.48;;;23.50;46.50;;;;;;5022722;28;20087;-67